createdAt,value
2023-11-08T00:04:38.013Z,100090.05
2023-11-08T00:09:39.805Z,100087.32
2023-11-08T00:14:41.435Z,100084.77
2023-11-08T00:19:43.349Z,100085.30
2023-11-08T00:24:45.115Z,100077.45
2023-11-08T00:29:47.899Z,100081.20
2023-11-08T00:34:50.380Z,100078.48
2023-11-08T00:39:52.090Z,100076.64
2023-11-08T00:44:53.668Z,100074.10
2023-11-08T00:49:55.197Z,100066.08
2023-11-08T00:54:56.722Z,100066.98
2023-11-08T00:59:58.674Z,100059.84
2023-11-08T01:05:00.362Z,100054.94
2023-11-08T01:10:01.947Z,100058.42
2023-11-08T01:15:05.083Z,100055.91
2023-11-08T01:20:07.992Z,100053.75
2023-11-08T01:25:10.346Z,100047.48
2023-11-08T01:30:13.420Z,100046.84
2023-11-08T01:35:16.078Z,100044.44
2023-11-08T01:40:19.630Z,100043.38
2023-11-08T01:45:21.426Z,100038.05
2023-11-08T01:50:23.203Z,100030.66
2023-11-08T01:55:24.860Z,100021.38
2023-11-08T02:00:29.765Z,100023.39
2023-11-08T02:05:31.349Z,100013.67
2023-11-08T02:10:32.910Z,100017.38
2023-11-08T02:15:42.964Z,100017.16
2023-11-08T02:20:45.422Z,100019.20
2023-11-08T02:25:48.070Z,100022.95
2023-11-08T02:30:55.506Z,100019.34
2023-11-08T02:35:59.961Z,100030.77
2023-11-08T02:41:01.835Z,100030.61
2023-11-08T02:46:03.639Z,100023.31
2023-11-08T02:51:07.386Z,100019.20
2023-11-08T02:56:10.128Z,100032.24
2023-11-08T03:01:12.098Z,100026.48
2023-11-08T03:06:13.688Z,100024.18
2023-11-08T03:11:15.336Z,100033.30
2023-11-08T03:16:17.747Z,100029.94
2023-11-08T03:21:19.439Z,100028.45
2023-11-08T03:26:21.670Z,100028.77
2023-11-08T03:31:23.259Z,100034.91
2023-11-08T03:36:30.267Z,100042.05
2023-11-08T03:41:33.366Z,100042.50
2023-11-08T03:46:35.626Z,100037.50
2023-11-08T03:51:37.233Z,100034.55
2023-11-08T03:56:39.490Z,100033.29
2023-11-08T04:01:41.061Z,100031.69
2023-11-08T04:06:43.651Z,100030.83
2023-11-08T04:11:45.304Z,100023.80
2023-11-08T04:16:46.834Z,100030.45
2023-11-08T04:21:49.625Z,100033.02
2023-11-08T04:26:53.232Z,100031.45
2023-11-08T04:31:54.745Z,100033.31
2023-11-08T04:36:56.383Z,100031.91
2023-11-08T04:41:57.986Z,100024.19
2023-11-08T04:46:59.521Z,100026.41
2023-11-08T04:52:01.956Z,100024.88
2023-11-08T04:57:03.603Z,100022.87
2023-11-08T05:02:05.412Z,100020.02
2023-11-08T05:07:10.100Z,100021.10
2023-11-08T05:12:17.044Z,100025.41
2023-11-08T05:17:18.803Z,100032.48
2023-11-08T05:22:20.409Z,100035.11
2023-11-08T05:27:22.055Z,100034.32
2023-11-08T05:32:25.624Z,100039.64
2023-11-08T05:37:27.368Z,100050.60
2023-11-08T05:42:28.966Z,100059.50
2023-11-08T05:47:30.635Z,100064.80
2023-11-08T05:52:32.921Z,100064.30
2023-11-08T05:57:34.585Z,100066.16
2023-11-08T06:02:36.642Z,100069.72
2023-11-08T06:07:38.350Z,100071.87
2023-11-08T06:12:40.937Z,100070.77
2023-11-08T06:17:42.837Z,100073.77
2023-11-08T06:22:44.393Z,100074.88
2023-11-08T06:27:47.914Z,100083.86
2023-11-08T06:32:49.545Z,100086.85
2023-11-08T06:37:51.067Z,100083.16
2023-11-08T06:42:52.798Z,100091.77
2023-11-08T06:47:54.522Z,100092.20
2023-11-08T06:52:56.488Z,100092.96
2023-11-08T06:57:58.213Z,100092.50
2023-11-08T07:02:59.965Z,100092.35
2023-11-08T07:08:02.917Z,100085.49
2023-11-08T07:13:05.694Z,100094.03
2023-11-08T07:18:07.394Z,100098.64
2023-11-08T07:23:09.801Z,100094.38
2023-11-08T07:28:11.447Z,100103.26
2023-11-08T07:33:13.841Z,100107.91
2023-11-08T07:38:16.307Z,100108.80
2023-11-08T07:43:18.239Z,100109.95
2023-11-08T07:48:20.077Z,100110.08
2023-11-08T07:53:22.713Z,100111.21
2023-11-08T07:58:24.450Z,100110.63
2023-11-08T08:03:26.161Z,100110.73
2023-11-08T08:08:27.708Z,100113.50
2023-11-08T08:13:33.050Z,100113.31
2023-11-08T08:18:37.263Z,100110.52
2023-11-08T08:23:39.646Z,100107.18
2023-11-08T08:28:42.719Z,100101.98
2023-11-08T08:33:45.670Z,100108.10
2023-11-08T08:38:48.630Z,100106.36
2023-11-08T08:43:50.180Z,100111.45
2023-11-08T08:48:52.596Z,100113.23
2023-11-08T08:53:54.671Z,100115.61
2023-11-08T08:58:56.220Z,100116.69
2023-11-08T09:03:57.935Z,100118.38
2023-11-08T09:08:59.622Z,100122.70
2023-11-08T09:14:01.220Z,100118.68
2023-11-08T09:19:03.315Z,100120.80
2023-11-08T09:24:08.144Z,100119.30
2023-11-08T09:29:10.038Z,100118.59
2023-11-08T09:34:11.877Z,100119.71
2023-11-08T09:39:15.105Z,100113.02
2023-11-08T09:44:17.806Z,100106.81
2023-11-08T09:49:20.146Z,100101.45
2023-11-08T09:54:21.913Z,100097.94
2023-11-08T09:59:25.889Z,100091.31
2023-11-08T10:04:32.500Z,100094.94
2023-11-08T10:09:39.399Z,100091.46
2023-11-08T10:14:42.283Z,100092.63
2023-11-08T10:19:49.146Z,100085.16
2023-11-08T10:25:03.553Z,100080.30
2023-11-08T10:30:20.097Z,100080.64
2023-11-08T10:35:23.156Z,100080.97
2023-11-08T10:40:30.368Z,100079.58
2023-11-08T10:45:34.525Z,100081.94
2023-11-08T10:50:37.314Z,100078.66
2023-11-08T10:55:38.946Z,100076.52
2023-11-08T11:00:40.965Z,100079.57
2023-11-08T11:05:46.743Z,100079.21
2023-11-08T11:10:49.153Z,100074.65
2023-11-08T11:16:08.862Z,100071.86
2023-11-08T11:21:25.781Z,100072.36
2023-11-08T11:26:47.449Z,100077.15
2023-11-08T11:31:50.390Z,100074.09
2023-11-08T11:37:14.761Z,100077.07
2023-11-08T11:42:21.833Z,100076.66
2023-11-08T11:47:31.628Z,100073.63
2023-11-08T11:52:35.430Z,100072.69
2023-11-08T11:57:38.196Z,100074.41
2023-11-08T12:02:40.026Z,100079.83
2023-11-08T12:07:41.907Z,100078.79
2023-11-08T12:12:45.463Z,100075.49
2023-11-08T12:17:52.245Z,100072.64
2023-11-08T12:22:55.489Z,100076.05
2023-11-08T12:27:58.251Z,100075.61
2023-11-08T12:33:00.486Z,100074.29
2023-11-08T12:38:02.362Z,100070.27
2023-11-08T12:43:56.905Z,100072.20
2023-11-08T12:48:36.816Z,100073.81
2023-11-08T12:53:46.882Z,100068.10
2023-11-08T12:58:48.466Z,100068.66
2023-11-08T13:03:50.074Z,100074.86
2023-11-08T13:08:54.616Z,100076.08
2023-11-08T13:13:56.197Z,100074.10
2023-11-08T13:18:58.014Z,100078.14
2023-11-08T13:24:05.387Z,100085.73
2023-11-08T13:29:11.191Z,100085.59
2023-11-08T13:34:15.934Z,100085.39
2023-11-08T13:39:17.630Z,100086.54
2023-11-08T13:44:19.475Z,100092.56
2023-11-08T13:49:22.638Z,100095.80
2023-11-08T13:54:24.387Z,100093.75
2023-11-08T13:59:26.352Z,100099.39
2023-11-08T14:04:28.071Z,100101.48
2023-11-08T14:09:29.828Z,100102.73
2023-11-08T14:14:31.408Z,100102.15
2023-11-08T14:19:33.107Z,100110.14
2023-11-08T14:24:34.845Z,100107.02
2023-11-08T14:29:38.939Z,100110.77
2023-11-08T14:34:42.787Z,100114.49
2023-11-08T14:39:45.217Z,100115.09
2023-11-08T14:44:48.644Z,100112.92
2023-11-08T14:49:51.588Z,100109.02
2023-11-08T14:54:53.322Z,100109.35
2023-11-08T14:59:55.282Z,100113.09
2023-11-08T15:04:56.983Z,100117.35
2023-11-08T15:10:01.698Z,100116.12
2023-11-08T15:15:04.551Z,100123.13
2023-11-08T15:20:07.966Z,100135.75
2023-11-08T15:25:10.349Z,100139.20
2023-11-08T15:30:13.029Z,100143.00
2023-11-08T15:35:14.714Z,100146.73
2023-11-08T15:40:16.420Z,100149.46
2023-11-08T15:45:18.035Z,100154.88
2023-11-08T15:50:19.598Z,100157.61
2023-11-08T15:55:23.500Z,100157.73
2023-11-08T16:00:25.264Z,100153.02
2023-11-08T16:05:27.666Z,100164.11
2023-11-08T16:10:29.605Z,100160.73
2023-11-08T16:15:31.197Z,100160.77
2023-11-08T16:20:33.101Z,100164.02
2023-11-08T16:25:34.670Z,100171.07
2023-11-08T16:31:00.436Z,100169.52
2023-11-08T16:36:00.547Z,100168.70
2023-11-08T16:41:02.192Z,100172.33
2023-11-08T16:46:03.877Z,100168.30
2023-11-08T16:51:06.551Z,100171.68
2023-11-08T16:56:08.173Z,100172.79
2023-11-08T17:01:11.276Z,100174.91
2023-11-08T17:06:13.029Z,100179.71
2023-11-08T17:11:14.679Z,100176.28
2023-11-08T17:16:17.102Z,100179.39
2023-11-08T17:21:19.735Z,100181.67
2023-11-08T17:26:22.037Z,100184.11
2023-11-08T17:31:23.765Z,100188.77
2023-11-08T17:36:25.373Z,100190.52
2023-11-08T17:41:26.938Z,100192.08
2023-11-08T17:46:28.534Z,100188.20
2023-11-08T17:51:30.391Z,100186.20
2023-11-08T17:56:31.988Z,100186.92
2023-11-08T18:01:34.758Z,100189.54
2023-11-08T18:06:40.142Z,100190.23
2023-11-08T18:11:41.893Z,100194.20
2023-11-08T18:16:43.509Z,100197.65
2023-11-08T18:21:46.899Z,100198.52
2023-11-08T18:26:49.579Z,100203.49
2023-11-08T18:31:51.204Z,100200.08
2023-11-08T18:36:53.125Z,100207.98
2023-11-08T18:41:55.237Z,100210.01
2023-11-08T18:46:56.824Z,100213.73
2023-11-08T18:51:58.456Z,100221.45
2023-11-08T18:57:00.292Z,100225.90
2023-11-08T19:02:02.105Z,100227.82
2023-11-08T19:07:03.941Z,100234.86
2023-11-08T19:12:06.656Z,100235.23
2023-11-08T19:17:08.265Z,100236.80
2023-11-08T19:22:10.801Z,100238.02
2023-11-08T19:27:12.464Z,100243.66
2023-11-08T19:32:14.987Z,100237.17
2023-11-08T19:37:18.760Z,100238.08
2023-11-08T19:42:20.368Z,100239.27
2023-11-08T19:47:22.875Z,100237.09
2023-11-08T19:52:24.457Z,100235.73
2023-11-08T19:57:26.085Z,100238.34
2023-11-08T20:02:27.920Z,100237.14
2023-11-08T20:07:29.458Z,100235.30
2023-11-08T20:12:31.206Z,100238.94
2023-11-08T20:17:32.929Z,100243.22
2023-11-08T20:22:34.647Z,100247.85
2023-11-08T20:27:37.688Z,100244.56
2023-11-08T20:32:40.672Z,100244.88
2023-11-08T20:37:42.369Z,100244.54
2023-11-08T20:42:45.261Z,100244.24
2023-11-08T20:47:47.117Z,100242.45
2023-11-08T20:52:48.869Z,100241.89
2023-11-08T20:57:50.726Z,100244.41
2023-11-08T21:02:52.274Z,100247.60
2023-11-08T21:07:55.849Z,100245.13
2023-11-08T21:12:57.521Z,100242.63
2023-11-08T21:17:59.059Z,100244.40
2023-11-08T21:23:00.679Z,100243.88
2023-11-08T21:28:02.262Z,100243.83
2023-11-08T21:33:04.508Z,100246.88
2023-11-08T21:38:06.115Z,100250.24
2023-11-08T21:43:07.765Z,100245.75
2023-11-08T21:48:09.889Z,100249.45
2023-11-08T21:53:12.236Z,100247.88
2023-11-08T21:58:15.562Z,100247.35
2023-11-08T22:03:17.953Z,100250.48
2023-11-08T22:08:20.143Z,100255.13
2023-11-08T22:13:21.794Z,100252.02
2023-11-08T22:18:23.366Z,100255.65
2023-11-08T22:23:25.228Z,100251.55
2023-11-08T22:28:26.815Z,100254.97
2023-11-08T22:33:28.420Z,100255.16
2023-11-08T22:38:29.943Z,100248.69
2023-11-08T22:43:31.583Z,100249.61
2023-11-08T22:48:33.710Z,100246.11
2023-11-08T22:53:35.359Z,100246.77
2023-11-08T22:58:36.908Z,100245.30
2023-11-08T23:03:45.524Z,100242.29
2023-11-08T23:08:49.280Z,100244.92
2023-11-08T23:13:51.854Z,100244.11
2023-11-08T23:18:56.951Z,100242.45
2023-11-08T23:24:00.160Z,100244.71
2023-11-08T23:29:05.091Z,100252.45
2023-11-08T23:34:06.997Z,100258.14
2023-11-08T23:39:10.283Z,100255.98
2023-11-08T23:44:12.751Z,100252.13
2023-11-08T23:49:14.379Z,100248.94
2023-11-08T23:54:15.992Z,100245.03
2023-11-08T23:59:17.759Z,100242.47
